sensor_id;sensor_type;location;lat;lon;timestamp;pressure;altitude;pressure_sealevel;temperature;humidity
43503;BME280;29098;48.184;16.298;2023-05-11T00:02:19;99278.78;;;14.84;57.05
43503;BME280;29098;48.184;16.298;2023-05-11T00:04:44;99227.41;;;14.65;57.08
43503;BME280;29098;48.184;16.298;2023-05-11T00:07:10;99244.13;;;14.65;57.49
43503;BME280;29098;48.184;16.298;2023-05-11T00:09:35;99218.50;;;14.46;57.48
43503;BME280;29098;48.184;16.298;2023-05-11T00:12:03;99211.97;;;14.48;58.04
43503;BME280;29098;48.184;16.298;2023-05-11T00:14:31;99251.69;;;14.62;57.89
43503;BME280;29098;48.184;16.298;2023-05-11T00:16:57;99209.06;;;14.57;57.89
43503;BME280;29098;48.184;16.298;2023-05-11T00:19:22;99269.84;;;14.72;58.36
43503;BME280;29098;48.184;16.298;2023-05-11T00:21:50;99224.59;;;14.60;57.79
43503;BME280;29098;48.184;16.298;2023-05-11T00:24:15;99226.19;;;14.61;57.58
43503;BME280;29098;48.184;16.298;2023-05-11T00:26:41;99219.09;;;14.55;57.68
43503;BME280;29098;48.184;16.298;2023-05-11T00:29:06;99257.59;;;14.77;58.13
43503;BME280;29098;48.184;16.298;2023-05-11T00:31:32;99265.94;;;14.74;57.37
43503;BME280;29098;48.184;16.298;2023-05-11T00:33:57;99274.13;;;14.73;57.88
43503;BME280;29098;48.184;16.298;2023-05-11T00:36:23;99216.13;;;14.31;57.86
43503;BME280;29098;48.184;16.298;2023-05-11T00:38:49;99226.22;;;14.54;58.24
43503;BME280;29098;48.184;16.298;2023-05-11T00:41:15;99254.72;;;14.72;57.86
43503;BME280;29098;48.184;16.298;2023-05-11T00:43:40;99230.81;;;14.33;58.64
43503;BME280;29098;48.184;16.298;2023-05-11T00:46:06;99259.28;;;14.51;59.10
43503;BME280;29098;48.184;16.298;2023-05-11T00:48:31;99270.13;;;14.50;59.63
43503;BME280;29098;48.184;16.298;2023-05-11T00:51:00;99248.66;;;14.51;59.69
43503;BME280;29098;48.184;16.298;2023-05-11T00:53:27;99262.13;;;14.57;59.75
43503;BME280;29098;48.184;16.298;2023-05-11T00:55:53;99255.63;;;14.52;60.90
43503;BME280;29098;48.184;16.298;2023-05-11T00:58:18;99222.03;;;14.33;60.80
43503;BME280;29098;48.184;16.298;2023-05-11T01:00:44;99250.31;;;14.46;61.11
43503;BME280;29098;48.184;16.298;2023-05-11T01:03:12;99273.00;;;14.35;61.31
43503;BME280;29098;48.184;16.298;2023-05-11T01:05:58;99229.16;;;14.32;60.96
43503;BME280;29098;48.184;16.298;2023-05-11T01:08:47;99209.22;;;14.16;61.05
43503;BME280;29098;48.184;16.298;2023-05-11T01:11:29;99246.25;;;14.43;60.88
43503;BME280;29098;48.184;16.298;2023-05-11T01:16:55;99178.59;;;14.20;59.00
43503;BME280;29098;48.184;16.298;2023-05-11T01:21:58;99231.63;;;14.20;60.18
43503;BME280;29098;48.184;16.298;2023-05-11T01:25:02;99237.50;;;14.36;61.48
43503;BME280;29098;48.184;16.298;2023-05-11T01:32:54;99246.31;;;14.30;60.88
43503;BME280;29098;48.184;16.298;2023-05-11T01:35:24;99181.13;;;14.02;60.44
43503;BME280;29098;48.184;16.298;2023-05-11T01:37:54;99269.94;;;14.38;60.06
43503;BME280;29098;48.184;16.298;2023-05-11T01:40:23;99265.44;;;14.45;60.40
43503;BME280;29098;48.184;16.298;2023-05-11T01:42:54;99245.47;;;14.29;60.90
43503;BME280;29098;48.184;16.298;2023-05-11T01:45:25;99174.97;;;14.15;59.54
43503;BME280;29098;48.184;16.298;2023-05-11T01:47:53;99271.78;;;14.37;60.13
43503;BME280;29098;48.184;16.298;2023-05-11T01:50:23;99265.88;;;14.35;59.99
43503;BME280;29098;48.184;16.298;2023-05-11T01:52:50;99260.13;;;14.45;60.25
43503;BME280;29098;48.184;16.298;2023-05-11T01:55:20;99258.34;;;14.25;60.77
43503;BME280;29098;48.184;16.298;2023-05-11T01:57:47;99213.03;;;14.34;59.41
43503;BME280;29098;48.184;16.298;2023-05-11T02:00:16;99258.94;;;14.34;59.83
43503;BME280;29098;48.184;16.298;2023-05-11T02:02:43;99265.06;;;14.28;60.31
43503;BME280;29098;48.184;16.298;2023-05-11T02:05:14;99232.72;;;14.06;60.30
43503;BME280;29098;48.184;16.298;2023-05-11T02:07:42;99263.47;;;14.14;60.31
43503;BME280;29098;48.184;16.298;2023-05-11T02:10:09;99205.34;;;14.12;60.02
43503;BME280;29098;48.184;16.298;2023-05-11T02:12:37;99234.25;;;14.34;60.28
43503;BME280;29098;48.184;16.298;2023-05-11T02:15:04;99246.97;;;14.05;60.87
43503;BME280;29098;48.184;16.298;2023-05-11T02:17:31;99260.22;;;14.11;60.95
43503;BME280;29098;48.184;16.298;2023-05-11T02:19:59;99276.13;;;14.11;61.11
43503;BME280;29098;48.184;16.298;2023-05-11T02:22:26;99266.34;;;14.05;61.77
43503;BME280;29098;48.184;16.298;2023-05-11T02:24:52;99218.66;;;13.78;62.78
43503;BME280;29098;48.184;16.298;2023-05-11T02:27:18;99187.09;;;13.63;62.47
43503;BME280;29098;48.184;16.298;2023-05-11T02:29:43;99258.63;;;13.90;63.26
43503;BME280;29098;48.184;16.298;2023-05-11T02:32:13;99277.97;;;14.04;63.16
43503;BME280;29098;48.184;16.298;2023-05-11T02:34:42;99192.41;;;13.63;62.47
43503;BME280;29098;48.184;16.298;2023-05-11T02:37:19;99226.22;;;13.75;62.90
43503;BME280;29098;48.184;16.298;2023-05-11T02:39:54;99238.47;;;13.62;63.78
43503;BME280;29098;48.184;16.298;2023-05-11T02:42:21;99208.94;;;13.52;63.38
43503;BME280;29098;48.184;16.298;2023-05-11T02:44:58;99272.06;;;13.95;62.76
43503;BME280;29098;48.184;16.298;2023-05-11T02:47:31;99234.38;;;13.66;63.13
43503;BME280;29098;48.184;16.298;2023-05-11T02:50:00;99207.50;;;13.56;63.48
43503;BME280;29098;48.184;16.298;2023-05-11T02:52:28;99268.59;;;13.75;63.98
43503;BME280;29098;48.184;16.298;2023-05-11T02:54:55;99195.84;;;13.37;64.43
43503;BME280;29098;48.184;16.298;2023-05-11T02:57:22;99240.28;;;13.55;64.32
43503;BME280;29098;48.184;16.298;2023-05-11T02:59:48;99273.50;;;13.78;64.14
43503;BME280;29098;48.184;16.298;2023-05-11T03:02:14;99191.38;;;13.37;64.21
43503;BME280;29098;48.184;16.298;2023-05-11T03:04:39;99285.13;;;13.77;64.19
43503;BME280;29098;48.184;16.298;2023-05-11T03:07:06;99251.50;;;13.57;64.83
43503;BME280;29098;48.184;16.298;2023-05-11T03:09:33;99285.72;;;13.79;64.97
43503;BME280;29098;48.184;16.298;2023-05-11T03:11:59;99251.09;;;13.47;65.01
43503;BME280;29098;48.184;16.298;2023-05-11T03:14:25;99218.47;;;13.39;64.81
43503;BME280;29098;48.184;16.298;2023-05-11T03:16:51;99282.47;;;13.70;65.09
43503;BME280;29098;48.184;16.298;2023-05-11T03:19:18;99250.44;;;13.45;64.82
43503;BME280;29098;48.184;16.298;2023-05-11T03:21:43;99208.91;;;13.38;65.43
43503;BME280;29098;48.184;16.298;2023-05-11T03:24:10;99287.34;;;13.60;65.05
43503;BME280;29098;48.184;16.298;2023-05-11T03:26:36;99249.63;;;13.44;65.58
43503;BME280;29098;48.184;16.298;2023-05-11T03:29:03;99262.69;;;13.59;65.23
43503;BME280;29098;48.184;16.298;2023-05-11T03:31:31;99217.44;;;13.40;65.03
43503;BME280;29098;48.184;16.298;2023-05-11T03:33:57;99274.31;;;13.58;65.13
43503;BME280;29098;48.184;16.298;2023-05-11T03:36:23;99207.28;;;13.37;65.38
43503;BME280;29098;48.184;16.298;2023-05-11T03:38:50;99258.00;;;13.48;65.81
43503;BME280;29098;48.184;16.298;2023-05-11T03:41:18;99237.00;;;13.33;65.41
43503;BME280;29098;48.184;16.298;2023-05-11T03:43:48;99268.81;;;13.53;65.86
43503;BME280;29098;48.184;16.298;2023-05-11T03:46:18;99241.06;;;13.35;65.48
43503;BME280;29098;48.184;16.298;2023-05-11T03:48:45;99272.09;;;13.48;66.33
43503;BME280;29098;48.184;16.298;2023-05-11T03:51:10;99247.63;;;13.53;66.17
43503;BME280;29098;48.184;16.298;2023-05-11T03:53:37;99190.53;;;13.23;65.76
43503;BME280;29098;48.184;16.298;2023-05-11T03:56:04;99268.81;;;13.66;65.72
43503;BME280;29098;48.184;16.298;2023-05-11T03:58:31;99180.38;;;13.27;65.70
43503;BME280;29098;48.184;16.298;2023-05-11T04:00:57;99280.22;;;13.60;65.79
43503;BME280;29098;48.184;16.298;2023-05-11T04:03:23;99254.31;;;13.42;66.37
43503;BME280;29098;48.184;16.298;2023-05-11T04:05:48;99257.41;;;13.46;66.61
43503;BME280;29098;48.184;16.298;2023-05-11T04:08:14;99272.47;;;13.45;66.97
43503;BME280;29098;48.184;16.298;2023-05-11T04:10:40;99238.25;;;13.57;66.09
43503;BME280;29098;48.184;16.298;2023-05-11T04:13:05;99276.16;;;13.64;66.96
43503;BME280;29098;48.184;16.298;2023-05-11T04:15:30;99272.50;;;13.52;67.52
43503;BME280;29098;48.184;16.298;2023-05-11T04:17:56;99262.69;;;13.52;67.18
43503;BME280;29098;48.184;16.298;2023-05-11T04:20:21;99245.97;;;13.38;67.10
43503;BME280;29098;48.184;16.298;2023-05-11T04:22:47;99226.00;;;13.42;66.78
43503;BME280;29098;48.184;16.298;2023-05-11T04:25:12;99240.72;;;13.52;67.16
43503;BME280;29098;48.184;16.298;2023-05-11T04:27:38;99271.69;;;13.65;65.98
43503;BME280;29098;48.184;16.298;2023-05-11T04:30:05;99249.47;;;13.46;65.58
43503;BME280;29098;48.184;16.298;2023-05-11T04:32:30;99286.56;;;13.79;65.09
43503;BME280;29098;48.184;16.298;2023-05-11T04:34:59;99283.69;;;13.61;65.36
43503;BME280;29098;48.184;16.298;2023-05-11T04:37:24;99284.09;;;13.64;65.47
43503;BME280;29098;48.184;16.298;2023-05-11T04:39:50;99298.78;;;13.67;65.64
43503;BME280;29098;48.184;16.298;2023-05-11T04:42:15;99265.56;;;13.58;65.26
43503;BME280;29098;48.184;16.298;2023-05-11T04:44:41;99264.94;;;13.49;65.39
43503;BME280;29098;48.184;16.298;2023-05-11T04:47:06;99287.56;;;13.72;65.43
43503;BME280;29098;48.184;16.298;2023-05-11T04:49:32;99298.97;;;13.72;65.43
43503;BME280;29098;48.184;16.298;2023-05-11T04:51:57;99294.88;;;13.63;65.64
43503;BME280;29098;48.184;16.298;2023-05-11T04:54:22;99303.84;;;13.62;65.11
43503;BME280;29098;48.184;16.298;2023-05-11T04:56:48;99270.25;;;13.76;64.88
43503;BME280;29098;48.184;16.298;2023-05-11T04:59:13;99282.69;;;13.68;65.17
43503;BME280;29098;48.184;16.298;2023-05-11T05:01:39;99283.88;;;13.59;64.78
43503;BME280;29098;48.184;16.298;2023-05-11T05:04:04;99300.38;;;13.75;65.47
43503;BME280;29098;48.184;16.298;2023-05-11T05:06:30;99261.69;;;13.60;65.31
43503;BME280;29098;48.184;16.298;2023-05-11T05:08:56;99314.84;;;13.65;65.67
43503;BME280;29098;48.184;16.298;2023-05-11T05:11:22;99288.16;;;13.47;65.76
43503;BME280;29098;48.184;16.298;2023-05-11T05:13:48;99274.66;;;13.41;65.23
43503;BME280;29098;48.184;16.298;2023-05-11T05:16:13;99304.69;;;13.76;64.89
43503;BME280;29098;48.184;16.298;2023-05-11T05:18:39;99279.19;;;13.68;65.72
43503;BME280;29098;48.184;16.298;2023-05-11T05:21:04;99312.00;;;13.87;64.51
43503;BME280;29098;48.184;16.298;2023-05-11T05:23:30;99270.44;;;13.54;63.90
43503;BME280;29098;48.184;16.298;2023-05-11T05:25:58;99277.38;;;13.75;64.39
43503;BME280;29098;48.184;16.298;2023-05-11T05:28:23;99251.28;;;13.65;64.80
43503;BME280;29098;48.184;16.298;2023-05-11T05:30:48;99325.47;;;13.92;64.43
43503;BME280;29098;48.184;16.298;2023-05-11T05:33:14;99271.25;;;13.81;63.83
43503;BME280;29098;48.184;16.298;2023-05-11T05:35:39;99322.22;;;13.97;63.72
43503;BME280;29098;48.184;16.298;2023-05-11T05:38:06;99318.56;;;13.91;63.47
43503;BME280;29098;48.184;16.298;2023-05-11T05:40:32;99253.31;;;13.70;64.38
43503;BME280;29098;48.184;16.298;2023-05-11T05:43:01;99301.63;;;13.92;64.12
43503;BME280;29098;48.184;16.298;2023-05-11T05:45:26;99255.97;;;13.77;63.16
43503;BME280;29098;48.184;16.298;2023-05-11T05:47:52;99290.44;;;13.90;63.70
43503;BME280;29098;48.184;16.298;2023-05-11T05:50:17;99241.50;;;13.86;63.14
43503;BME280;29098;48.184;16.298;2023-05-11T05:52:43;99330.34;;;14.16;63.65
43503;BME280;29098;48.184;16.298;2023-05-11T05:55:08;99324.63;;;14.12;63.65
43503;BME280;29098;48.184;16.298;2023-05-11T05:57:34;99289.38;;;14.05;63.95
43503;BME280;29098;48.184;16.298;2023-05-11T05:59:59;99281.44;;;13.91;63.40
43503;BME280;29098;48.184;16.298;2023-05-11T06:02:25;99303.03;;;14.02;62.85
43503;BME280;29098;48.184;16.298;2023-05-11T06:04:50;99274.28;;;14.12;62.45
43503;BME280;29098;48.184;16.298;2023-05-11T06:07:15;99263.69;;;13.92;63.86
43503;BME280;29098;48.184;16.298;2023-05-11T06:09:41;99331.16;;;14.16;62.92
43503;BME280;29098;48.184;16.298;2023-05-11T06:12:06;99347.28;;;14.28;62.59
43503;BME280;29098;48.184;16.298;2023-05-11T06:14:34;99343.97;;;14.46;61.67
43503;BME280;29098;48.184;16.298;2023-05-11T06:16:59;99336.06;;;14.26;63.00
43503;BME280;29098;48.184;16.298;2023-05-11T06:19:25;99305.91;;;14.07;63.06
43503;BME280;29098;48.184;16.298;2023-05-11T06:21:50;99298.75;;;14.14;63.00
43503;BME280;29098;48.184;16.298;2023-05-11T06:24:15;99339.72;;;14.32;63.19
43503;BME280;29098;48.184;16.298;2023-05-11T06:26:41;99288.38;;;14.06;64.25
43503;BME280;29098;48.184;16.298;2023-05-11T06:29:06;99344.19;;;14.38;64.56
43503;BME280;29098;48.184;16.298;2023-05-11T06:31:32;99345.78;;;14.59;62.73
43503;BME280;29098;48.184;16.298;2023-05-11T06:33:58;99297.25;;;14.38;62.88
43503;BME280;29098;48.184;16.298;2023-05-11T06:36:23;99324.19;;;14.49;63.11
43503;BME280;29098;48.184;16.298;2023-05-11T06:38:49;99308.31;;;14.35;62.85
43503;BME280;29098;48.184;16.298;2023-05-11T06:41:15;99289.94;;;14.41;62.34
43503;BME280;29098;48.184;16.298;2023-05-11T06:43:40;99348.63;;;14.64;62.47
43503;BME280;29098;48.184;16.298;2023-05-11T06:46:06;99333.16;;;14.55;61.58
43503;BME280;29098;48.184;16.298;2023-05-11T06:48:32;99342.69;;;14.62;61.51
43503;BME280;29098;48.184;16.298;2023-05-11T06:50:57;99318.47;;;14.45;61.30
43503;BME280;29098;48.184;16.298;2023-05-11T06:53:23;99321.91;;;14.59;61.61
43503;BME280;29098;48.184;16.298;2023-05-11T06:55:50;99337.59;;;14.74;61.56
43503;BME280;29098;48.184;16.298;2023-05-11T06:58:18;99335.56;;;14.76;61.66
43503;BME280;29098;48.184;16.298;2023-05-11T07:00:44;99343.28;;;14.78;62.33
43503;BME280;29098;48.184;16.298;2023-05-11T07:03:10;99337.19;;;14.77;62.52
43503;BME280;29098;48.184;16.298;2023-05-11T07:05:35;99271.06;;;14.69;60.67
43503;BME280;29098;48.184;16.298;2023-05-11T07:08:02;99326.53;;;14.91;60.65
43503;BME280;29098;48.184;16.298;2023-05-11T07:10:30;99332.63;;;14.98;59.67
43503;BME280;29098;48.184;16.298;2023-05-11T07:12:55;99255.59;;;14.59;60.33
43503;BME280;29098;48.184;16.298;2023-05-11T07:15:21;99342.84;;;14.95;60.16
43503;BME280;29098;48.184;16.298;2023-05-11T07:17:46;99272.22;;;14.87;60.17
43503;BME280;29098;48.184;16.298;2023-05-11T07:20:12;99278.66;;;15.04;59.87
43503;BME280;29098;48.184;16.298;2023-05-11T07:22:37;99283.31;;;15.16;60.15
43503;BME280;29098;48.184;16.298;2023-05-11T07:25:03;99283.06;;;15.24;58.68
43503;BME280;29098;48.184;16.298;2023-05-11T07:27:28;99249.31;;;14.99;58.63
43503;BME280;29098;48.184;16.298;2023-05-11T07:29:55;99245.56;;;15.07;58.06
43503;BME280;29098;48.184;16.298;2023-05-11T07:32:20;99333.53;;;15.56;57.89
43503;BME280;29098;48.184;16.298;2023-05-11T07:34:46;99327.41;;;15.56;58.35
43503;BME280;29098;48.184;16.298;2023-05-11T07:37:12;99268.66;;;15.39;57.27
43503;BME280;29098;48.184;16.298;2023-05-11T07:39:38;99317.13;;;15.59;57.48
43503;BME280;29098;48.184;16.298;2023-05-11T07:42:03;99307.44;;;15.46;56.58
43503;BME280;29098;48.184;16.298;2023-05-11T07:44:28;99271.44;;;15.51;56.96
43503;BME280;29098;48.184;16.298;2023-05-11T07:46:55;99267.75;;;15.52;57.15
43503;BME280;29098;48.184;16.298;2023-05-11T07:49:20;99308.50;;;15.71;57.32
43503;BME280;29098;48.184;16.298;2023-05-11T07:51:46;99261.88;;;15.43;56.92
43503;BME280;29098;48.184;16.298;2023-05-11T07:54:11;99251.06;;;15.44;56.83
43503;BME280;29098;48.184;16.298;2023-05-11T07:56:37;99287.91;;;15.59;57.82
43503;BME280;29098;48.184;16.298;2023-05-11T07:59:02;99285.59;;;15.70;57.63
43503;BME280;29098;48.184;16.298;2023-05-11T08:01:28;99319.50;;;15.74;57.17
43503;BME280;29098;48.184;16.298;2023-05-11T08:03:53;99301.09;;;15.73;56.51
43503;BME280;29098;48.184;16.298;2023-05-11T08:06:18;99292.09;;;15.74;56.29
43503;BME280;29098;48.184;16.298;2023-05-11T08:08:44;99296.72;;;15.85;56.71
43503;BME280;29098;48.184;16.298;2023-05-11T08:11:09;99285.41;;;15.97;55.88
43503;BME280;29098;48.184;16.298;2023-05-11T08:13:35;99302.81;;;15.93;55.85
43503;BME280;29098;48.184;16.298;2023-05-11T08:16:00;99333.69;;;15.94;56.07
43503;BME280;29098;48.184;16.298;2023-05-11T08:18:26;99324.69;;;15.95;55.69
43503;BME280;29098;48.184;16.298;2023-05-11T08:20:51;99330.47;;;16.10;56.36
43503;BME280;29098;48.184;16.298;2023-05-11T08:23:17;99311.63;;;16.37;55.51
43503;BME280;29098;48.184;16.298;2023-05-11T08:25:50;99282.44;;;16.05;56.26
43503;BME280;29098;48.184;16.298;2023-05-11T08:28:16;99242.34;;;15.81;55.86
43503;BME280;29098;48.184;16.298;2023-05-11T08:30:42;99286.59;;;16.01;56.29
43503;BME280;29098;48.184;16.298;2023-05-11T08:33:07;99323.78;;;16.26;56.17
43503;BME280;29098;48.184;16.298;2023-05-11T08:35:33;99310.28;;;16.47;56.19
43503;BME280;29098;48.184;16.298;2023-05-11T08:37:59;99322.25;;;16.37;56.27
43503;BME280;29098;48.184;16.298;2023-05-11T08:40:26;99293.94;;;16.43;55.60
43503;BME280;29098;48.184;16.298;2023-05-11T08:42:54;99328.63;;;16.55;55.80
43503;BME280;29098;48.184;16.298;2023-05-11T08:45:21;99304.75;;;16.48;55.36
43503;BME280;29098;48.184;16.298;2023-05-11T08:47:48;99306.66;;;16.60;54.55
43503;BME280;29098;48.184;16.298;2023-05-11T08:50:13;99280.56;;;16.31;54.43
43503;BME280;29098;48.184;16.298;2023-05-11T08:52:39;99285.81;;;16.38;54.47
43503;BME280;29098;48.184;16.298;2023-05-11T08:55:09;99272.81;;;16.48;54.32
43503;BME280;29098;48.184;16.298;2023-05-11T08:57:35;99282.47;;;16.42;54.30
43503;BME280;29098;48.184;16.298;2023-05-11T09:00:03;99296.59;;;16.62;55.30
43503;BME280;29098;48.184;16.298;2023-05-11T09:02:29;99244.66;;;16.40;53.21
43503;BME280;29098;48.184;16.298;2023-05-11T09:04:56;99294.50;;;16.82;54.49
43503;BME280;29098;48.184;16.298;2023-05-11T09:07:23;99229.03;;;16.63;54.88
43503;BME280;29098;48.184;16.298;2023-05-11T09:09:51;99296.16;;;17.02;52.10
43503;BME280;29098;48.184;16.298;2023-05-11T09:12:17;99251.41;;;16.74;52.15
43503;BME280;29098;48.184;16.298;2023-05-11T09:14:43;99274.69;;;16.78;52.83
43503;BME280;29098;48.184;16.298;2023-05-11T09:17:08;99280.88;;;17.09;52.22
43503;BME280;29098;48.184;16.298;2023-05-11T09:19:36;99300.63;;;17.32;51.33
43503;BME280;29098;48.184;16.298;2023-05-11T09:22:06;99290.88;;;17.14;49.81
43503;BME280;29098;48.184;16.298;2023-05-11T09:24:31;99261.47;;;17.21;49.58
43503;BME280;29098;48.184;16.298;2023-05-11T09:27:07;99235.53;;;16.97;50.74
43503;BME280;29098;48.184;16.298;2023-05-11T09:29:35;99257.88;;;17.15;49.27
43503;BME280;29098;48.184;16.298;2023-05-11T09:32:01;99274.63;;;17.58;49.08
43503;BME280;29098;48.184;16.298;2023-05-11T09:34:26;99242.03;;;17.44;49.12
43503;BME280;29098;48.184;16.298;2023-05-11T09:36:53;99256.34;;;17.62;49.39
43503;BME280;29098;48.184;16.298;2023-05-11T09:39:33;99288.00;;;17.82;47.80
43503;BME280;29098;48.184;16.298;2023-05-11T09:42:16;99204.50;;;17.46;46.18
43503;BME280;29098;48.184;16.298;2023-05-11T09:44:43;99281.13;;;17.74;46.12
43503;BME280;29098;48.184;16.298;2023-05-11T09:47:15;99207.75;;;17.36;45.67
43503;BME280;29098;48.184;16.298;2023-05-11T09:49:43;99261.09;;;17.84;45.93
43503;BME280;29098;48.184;16.298;2023-05-11T09:52:17;99222.47;;;17.62;46.22
43503;BME280;29098;48.184;16.298;2023-05-11T09:54:44;99254.44;;;17.50;46.21
43503;BME280;29098;48.184;16.298;2023-05-11T09:57:30;99240.44;;;17.79;47.29
43503;BME280;29098;48.184;16.298;2023-05-11T09:59:57;99245.91;;;17.72;45.73
43503;BME280;29098;48.184;16.298;2023-05-11T10:02:28;99246.13;;;17.83;45.94
43503;BME280;29098;48.184;16.298;2023-05-11T10:04:56;99218.09;;;17.80;45.35
43503;BME280;29098;48.184;16.298;2023-05-11T10:09:54;99246.13;;;17.83;47.13
43503;BME280;29098;48.184;16.298;2023-05-11T10:12:21;99207.53;;;17.85;46.21
43503;BME280;29098;48.184;16.298;2023-05-11T10:14:55;99261.63;;;18.45;44.91
43503;BME280;29098;48.184;16.298;2023-05-11T10:17:22;99235.09;;;18.39;45.78
43503;BME280;29098;48.184;16.298;2023-05-11T10:19:49;99224.09;;;18.23;46.01
43503;BME280;29098;48.184;16.298;2023-05-11T10:22:16;99238.06;;;18.54;45.11
43503;BME280;29098;48.184;16.298;2023-05-11T10:24:42;99246.97;;;18.89;44.57
43503;BME280;29098;48.184;16.298;2023-05-11T10:27:10;99219.41;;;18.71;43.20
43503;BME280;29098;48.184;16.298;2023-05-11T10:29:36;99187.63;;;18.41;43.35
43503;BME280;29098;48.184;16.298;2023-05-11T10:32:03;99221.50;;;18.69;42.45
43503;BME280;29098;48.184;16.298;2023-05-11T10:34:30;99189.34;;;18.76;42.37
43503;BME280;29098;48.184;16.298;2023-05-11T10:36:59;99221.47;;;18.81;41.57
43503;BME280;29098;48.184;16.298;2023-05-11T10:39:24;99239.88;;;18.95;41.34
43503;BME280;29098;48.184;16.298;2023-05-11T10:52:19;99169.84;;;19.22;42.97
43503;BME280;29098;48.184;16.298;2023-05-11T10:58:09;99195.88;;;19.66;41.54
43503;BME280;29098;48.184;16.298;2023-05-11T11:03:33;99177.00;;;19.04;41.28
43503;BME280;29098;48.184;16.298;2023-05-11T11:06:00;99169.47;;;19.01;42.45
43503;BME280;29098;48.184;16.298;2023-05-11T11:08:25;99212.00;;;19.02;41.91
43503;BME280;29098;48.184;16.298;2023-05-11T11:10:51;99216.66;;;18.95;41.34
43503;BME280;29098;48.184;16.298;2023-05-11T11:13:17;99203.25;;;19.24;40.28
43503;BME280;29098;48.184;16.298;2023-05-11T11:16:07;99154.56;;;18.88;41.30
43503;BME280;29098;48.184;16.298;2023-05-11T11:18:33;99184.38;;;19.14;41.88
43503;BME280;29098;48.184;16.298;2023-05-11T11:20:58;99208.75;;;19.17;41.31
43503;BME280;29098;48.184;16.298;2023-05-11T11:23:45;99188.22;;;19.18;41.69
43503;BME280;29098;48.184;16.298;2023-05-11T11:26:14;99204.97;;;19.30;42.05
43503;BME280;29098;48.184;16.298;2023-05-11T11:31:28;99200.72;;;19.69;40.99
43503;BME280;29098;48.184;16.298;2023-05-11T11:33:55;99150.03;;;19.40;40.73
43503;BME280;29098;48.184;16.298;2023-05-11T11:39:23;99166.81;;;19.35;40.52
43503;BME280;29098;48.184;16.298;2023-05-11T11:42:04;99196.66;;;19.66;41.42
43503;BME280;29098;48.184;16.298;2023-05-11T11:44:32;99163.63;;;19.55;41.52
43503;BME280;29098;48.184;16.298;2023-05-11T11:47:21;99176.41;;;20.10;42.32
43503;BME280;29098;48.184;16.298;2023-05-11T11:49:49;99150.16;;;20.07;41.52
43503;BME280;29098;48.184;16.298;2023-05-11T11:54:57;99159.19;;;20.50;39.75
43503;BME280;29098;48.184;16.298;2023-05-11T12:00:02;99183.13;;;20.12;39.16
43503;BME280;29098;48.184;16.298;2023-05-11T12:02:32;99184.00;;;19.96;39.95
43503;BME280;29098;48.184;16.298;2023-05-11T12:05:11;99150.50;;;19.93;39.80
43503;BME280;29098;48.184;16.298;2023-05-11T12:07:41;99121.16;;;19.98;40.65
43503;BME280;29098;48.184;16.298;2023-05-11T12:10:07;99133.91;;;19.91;38.66
43503;BME280;29098;48.184;16.298;2023-05-11T12:12:37;99180.59;;;20.01;39.20
43503;BME280;29098;48.184;16.298;2023-05-11T12:15:03;99113.84;;;19.94;38.94
43503;BME280;29098;48.184;16.298;2023-05-11T12:17:31;99106.06;;;19.70;39.50
43503;BME280;29098;48.184;16.298;2023-05-11T12:20:12;99171.25;;;20.03;39.34
43503;BME280;29098;48.184;16.298;2023-05-11T12:22:38;99084.75;;;19.53;40.41
43503;BME280;29098;48.184;16.298;2023-05-11T12:25:05;99142.50;;;19.76;39.59
43503;BME280;29098;48.184;16.298;2023-05-11T12:27:31;99143.72;;;19.46;39.21
43503;BME280;29098;48.184;16.298;2023-05-11T12:29:56;99161.00;;;19.78;38.92
43503;BME280;29098;48.184;16.298;2023-05-11T12:32:25;99127.53;;;19.75;39.28
43503;BME280;29098;48.184;16.298;2023-05-11T12:34:59;99147.75;;;19.88;39.06
43503;BME280;29098;48.184;16.298;2023-05-11T12:37:25;99116.28;;;19.73;40.59
43503;BME280;29098;48.184;16.298;2023-05-11T12:39:55;99088.75;;;19.55;40.26
43503;BME280;29098;48.184;16.298;2023-05-11T12:42:20;99100.78;;;19.75;39.81
43503;BME280;29098;48.184;16.298;2023-05-11T12:44:46;99157.25;;;20.18;40.99
43503;BME280;29098;48.184;16.298;2023-05-11T12:47:12;99135.31;;;20.21;39.96
43503;BME280;29098;48.184;16.298;2023-05-11T12:49:40;99091.00;;;20.03;38.60
43503;BME280;29098;48.184;16.298;2023-05-11T12:52:06;99138.41;;;20.08;39.94
43503;BME280;29098;48.184;16.298;2023-05-11T12:54:35;99103.38;;;19.70;39.48
43503;BME280;29098;48.184;16.298;2023-05-11T12:57:03;99065.25;;;19.35;40.37
43503;BME280;29098;48.184;16.298;2023-05-11T12:59:36;99115.78;;;19.54;39.55
43503;BME280;29098;48.184;16.298;2023-05-11T13:02:05;99142.06;;;19.62;39.38
43503;BME280;29098;48.184;16.298;2023-05-11T13:04:31;99115.25;;;19.57;39.38
43503;BME280;29098;48.184;16.298;2023-05-11T13:06:57;99121.38;;;19.75;39.59
43503;BME280;29098;48.184;16.298;2023-05-11T13:09:26;99142.84;;;19.80;38.87
43503;BME280;29098;48.184;16.298;2023-05-11T13:12:17;99103.78;;;19.79;40.51
43503;BME280;29098;48.184;16.298;2023-05-11T13:14:47;99068.91;;;19.68;41.09
43503;BME280;29098;48.184;16.298;2023-05-11T13:17:28;99045.44;;;19.76;39.54
43503;BME280;29098;48.184;16.298;2023-05-11T13:19:54;99078.31;;;20.21;40.16
43503;BME280;29098;48.184;16.298;2023-05-11T13:22:19;99111.50;;;20.47;39.08
43503;BME280;29098;48.184;16.298;2023-05-11T13:24:45;99070.19;;;20.10;38.57
43503;BME280;29098;48.184;16.298;2023-05-11T13:27:10;99096.81;;;20.22;38.47
43503;BME280;29098;48.184;16.298;2023-05-11T13:29:38;99071.97;;;20.00;39.19
43503;BME280;29098;48.184;16.298;2023-05-11T13:32:04;99042.88;;;19.86;38.75
43503;BME280;29098;48.184;16.298;2023-05-11T13:34:34;99099.84;;;20.31;38.60